CheckWX is a tool to help pilots better visualize weather data.  It is not intended as a substitute for an official pre-flight weather briefing.

10:46:24 UTC

KMTN TAF
Martin State Airport
Baltimore, Maryland, USA
KMTN 180134Z 1802/1824 10008KT P6SM BKN025 BKN100 FM180600 10006KT P6SM BKN015 FM180900 09006KT P6SM SCT008 OVC015 FM181500 12004KT P6SM SCT010 BKN080 FM181900 17013G21KT P6SM FEW080 SCT250 AMD NOT SKED TIL 181200

Apr-18@
02:00 UTC

Apr-18 @ 02:00 UTC

Apr-18@
06:00 UTC

Apr-18 @ 06:00 UTC

KMTN 180134Z 1802/1824 10008KT P6SM BKN025 BKN100

Expired

Wind
  • 100° at 8 KTS
Cloud Levels
  • Broken at 2,500' AGL
  • Broken at 10,000' AGL

Apr-18@
06:00 UTC

Apr-18 @ 06:00 UTC

Apr-18@
09:00 UTC

Apr-18 @ 09:00 UTC

FM180600 10006KT P6SM BKN015

Expired

Wind
  • 100° at 6 KTS
Cloud Levels
  • Broken at 1,500' AGL

Apr-18@
09:00 UTC

Apr-18 @ 09:00 UTC

Apr-18@
15:00 UTC

Apr-18 @ 15:00 UTC

FM180900 09006KT P6SM SCT008 OVC015

From

From Standard forecast or significant change

Wind
  • 090° at 6 KTS
Cloud Levels
  • Scattered at 800' AGL
  • Overcast at 1,500' AGL

Apr-18@
15:00 UTC

Apr-18 @ 15:00 UTC

Apr-18@
19:00 UTC

Apr-18 @ 19:00 UTC

FM181500 12004KT P6SM SCT010 BKN080

From

From Standard forecast or significant change

Wind
  • 120° at 4 KTS
Cloud Levels
  • Scattered at 1,000' AGL
  • Broken at 8,000' AGL

Apr-18@
19:00 UTC

Apr-18 @ 19:00 UTC

Apr-19@
00:00 UTC

Apr-19 @ 00:00 UTC

FM181900 17013G21KT P6SM FEW080 SCT250 AMD NOT SKED TIL 181200

From

From Standard forecast or significant change

Wind
  • 170° at 13 KTS
  • {Gusting to 21 KTS
Cloud Levels
  • Few at 8,000' AGL
  • Scattered at 25,000' AGL